createdAt,value
2022-12-04T00:00:10.577Z,9.82
2022-12-04T00:03:54.280Z,9.32
2022-12-04T00:07:36.373Z,9.70
2022-12-04T00:11:21.570Z,9.07
2022-12-04T00:19:05.636Z,10.68
2022-12-04T00:22:47.382Z,9.90
2022-12-04T00:26:31.223Z,10.25
2022-12-04T00:30:13.409Z,9.85
2022-12-04T00:33:55.302Z,8.30
2022-12-04T00:37:37.025Z,9.95
2022-12-04T00:41:21.459Z,9.55
2022-12-04T00:45:03.753Z,9.27
2022-12-04T00:48:45.612Z,9.52
2022-12-04T00:52:28.376Z,9.13
2022-12-04T00:56:13.029Z,9.15
2022-12-04T00:59:55.190Z,9.75
2022-12-04T01:03:37.602Z,8.90
2022-12-04T01:07:19.585Z,9.15
2022-12-04T01:11:05.740Z,9.48
2022-12-04T01:14:47.659Z,9.35
2022-12-04T01:18:29.419Z,10.23
2022-12-04T01:22:11.203Z,8.40
2022-12-04T01:25:55.511Z,8.25
2022-12-04T01:29:38.797Z,9.85
2022-12-04T01:33:20.591Z,9.25
2022-12-04T01:37:02.432Z,9.18
2022-12-04T01:40:45.085Z,8.13
2022-12-04T01:44:27.169Z,9.50
2022-12-04T01:48:17.717Z,8.80
2022-12-04T01:52:13.867Z,10.02
2022-12-04T01:55:56.452Z,8.90
2022-12-04T01:59:45.743Z,8.88
2022-12-04T02:03:27.639Z,8.75
2022-12-04T02:07:09.591Z,9.20
2022-12-04T02:11:05.391Z,7.95
2022-12-04T02:15:12.349Z,8.93
2022-12-04T02:19:23.133Z,7.75
2022-12-04T02:23:23.106Z,9.00
2022-12-04T02:27:38.979Z,7.70
2022-12-04T02:31:30.245Z,7.90
2022-12-04T02:35:29.085Z,8.20
2022-12-04T02:39:25.292Z,7.18
2022-12-04T02:43:24.572Z,7.28
2022-12-04T02:47:12.251Z,8.35
2022-12-04T02:50:56.796Z,6.45
2022-12-04T02:54:42.903Z,5.88
2022-12-04T02:58:31.672Z,5.80
2022-12-04T03:02:42.394Z,5.57
2022-12-04T03:06:27.273Z,5.57
2022-12-04T03:10:17.441Z,5.53
2022-12-04T03:14:26.452Z,6.57
2022-12-04T03:18:15.428Z,6.15
2022-12-04T03:22:04.994Z,6.03
2022-12-04T03:26:03.158Z,5.72
2022-12-04T03:29:49.974Z,5.63
2022-12-04T03:33:51.144Z,7.05
2022-12-04T03:37:35.930Z,6.15
2022-12-04T03:41:24.898Z,5.60
2022-12-04T03:45:28.998Z,6.00
2022-12-04T03:49:13.936Z,6.07
2022-12-04T03:53:20.732Z,5.68
2022-12-04T03:57:18.055Z,5.50
2022-12-04T04:04:47.770Z,6.00
2022-12-04T04:08:34.999Z,5.82
2022-12-04T04:12:26.998Z,6.85
2022-12-04T04:16:31.306Z,5.95
2022-12-04T04:20:36.345Z,5.30
2022-12-04T04:24:47.125Z,6.97
2022-12-04T04:28:38.188Z,6.65
2022-12-04T04:32:35.179Z,6.88
2022-12-04T04:36:33.641Z,6.55
2022-12-04T04:40:33.648Z,6.85
2022-12-04T04:44:34.539Z,6.30
2022-12-04T04:48:30.182Z,6.50
2022-12-04T04:52:12.089Z,6.55
2022-12-04T04:55:54.213Z,7.60
2022-12-04T04:59:35.967Z,6.20
2022-12-04T05:03:17.812Z,7.32
2022-12-04T05:06:59.579Z,7.18
2022-12-04T05:10:41.350Z,8.18
2022-12-04T05:14:23.066Z,8.98
2022-12-04T05:18:05.417Z,7.07
2022-12-04T05:21:47.250Z,7.60
2022-12-04T05:25:29.093Z,8.07
2022-12-04T05:29:10.850Z,7.28
2022-12-04T05:32:52.610Z,8.23
2022-12-04T05:36:34.386Z,7.03
2022-12-04T05:40:16.285Z,6.82
2022-12-04T05:43:58.015Z,7.05
2022-12-04T05:47:44.068Z,6.35
2022-12-04T05:51:25.770Z,7.10
2022-12-04T05:55:10.382Z,6.97
2022-12-04T05:58:52.214Z,6.60
2022-12-04T06:02:34.977Z,7.18
2022-12-04T06:06:22.179Z,6.50
2022-12-04T06:13:47.237Z,7.35
2022-12-04T06:17:29.032Z,7.10
2022-12-04T06:21:11.364Z,6.78
2022-12-04T06:24:53.197Z,8.05
2022-12-04T06:28:36.258Z,7.32
2022-12-04T06:32:21.736Z,7.63
2022-12-04T06:36:06.622Z,7.90
2022-12-04T06:39:48.624Z,7.50
2022-12-04T06:43:30.627Z,7.43
2022-12-04T06:47:12.351Z,7.20
2022-12-04T06:51:11.757Z,8.52
2022-12-04T06:54:53.538Z,8.02
2022-12-04T06:58:36.109Z,8.98
2022-12-04T07:02:17.854Z,8.77
2022-12-04T07:05:59.682Z,8.98
2022-12-04T07:09:41.406Z,8.75
2022-12-04T07:13:23.154Z,8.85
2022-12-04T07:17:04.962Z,8.63
2022-12-04T07:20:46.687Z,9.05
2022-12-04T07:24:28.499Z,9.20
2022-12-04T07:28:10.261Z,9.75
2022-12-04T07:31:52.052Z,10.13
2022-12-04T07:35:33.959Z,10.00
2022-12-04T07:39:15.752Z,11.07
2022-12-04T07:42:57.506Z,11.20
2022-12-04T07:46:39.273Z,10.38
2022-12-04T07:50:21.040Z,10.85
2022-12-04T07:54:04.259Z,11.25
2022-12-04T07:57:46.231Z,11.70
2022-12-04T08:01:28.608Z,13.43
2022-12-04T08:05:10.476Z,12.15
2022-12-04T08:08:53.116Z,13.48
2022-12-04T08:12:35.095Z,13.45
2022-12-04T08:16:17.109Z,12.70
2022-12-04T08:19:59.210Z,13.10
2022-12-04T08:23:43.037Z,13.43
2022-12-04T08:27:24.836Z,13.90
2022-12-04T08:31:10.258Z,14.25
2022-12-04T08:34:55.748Z,15.02
2022-12-04T08:38:38.194Z,14.57
2022-12-04T08:42:19.927Z,14.32
2022-12-04T08:46:04.931Z,14.65
2022-12-04T08:49:46.746Z,14.85
2022-12-04T08:53:28.488Z,15.05
2022-12-04T08:57:10.411Z,15.60
2022-12-04T09:00:52.268Z,14.57
2022-12-04T09:04:34.904Z,15.48
2022-12-04T09:08:17.682Z,14.93
2022-12-04T09:11:59.633Z,15.20
2022-12-04T09:15:41.571Z,15.57
2022-12-04T09:19:23.358Z,16.05
2022-12-04T09:23:05.902Z,14.93
2022-12-04T09:26:47.641Z,16.40
2022-12-04T09:30:29.373Z,17.00
2022-12-04T09:34:11.115Z,17.90
2022-12-04T09:37:54.232Z,16.88
2022-12-04T09:42:03.163Z,19.10
2022-12-04T09:45:51.285Z,16.50
2022-12-04T09:49:50.747Z,17.10
2022-12-04T09:53:45.899Z,17.17
2022-12-04T09:57:37.074Z,18.98
2022-12-04T10:01:25.814Z,19.30
2022-12-04T10:05:41.764Z,18.42
2022-12-04T10:09:42.332Z,16.98
2022-12-04T10:13:48.738Z,17.65
2022-12-04T10:17:45.506Z,17.50
2022-12-04T10:21:54.108Z,17.58
2022-12-04T10:25:38.669Z,18.52
2022-12-04T10:29:26.199Z,16.88
2022-12-04T10:33:18.847Z,15.93
2022-12-04T10:37:06.611Z,18.70
2022-12-04T10:40:54.926Z,16.90
2022-12-04T10:44:36.680Z,17.75
2022-12-04T10:48:30.527Z,17.85
2022-12-04T10:52:15.449Z,18.65
2022-12-04T10:56:07.430Z,18.40
2022-12-04T10:59:56.125Z,18.10
2022-12-04T11:03:38.887Z,19.02
2022-12-04T11:07:48.808Z,18.88
2022-12-04T11:11:33.587Z,18.10
2022-12-04T11:15:15.866Z,18.42
2022-12-04T11:18:57.613Z,18.27
2022-12-04T11:22:53.380Z,16.80
2022-12-04T11:26:37.813Z,17.13
2022-12-04T11:30:26.366Z,18.90
2022-12-04T11:34:14.489Z,17.90
2022-12-04T11:38:22.818Z,16.13
2022-12-04T11:42:13.889Z,17.52
2022-12-04T11:46:01.630Z,17.33
2022-12-04T11:49:55.541Z,17.10
2022-12-04T11:54:03.766Z,17.13
2022-12-04T11:58:08.210Z,16.20
2022-12-04T12:02:26.014Z,15.65
2022-12-04T12:06:33.151Z,15.65
2022-12-04T12:14:37.678Z,16.65
2022-12-04T12:18:38.918Z,17.40
2022-12-04T12:22:26.591Z,17.38
2022-12-04T12:26:19.010Z,16.77
2022-12-04T12:30:04.111Z,16.27
2022-12-04T12:33:56.176Z,15.27
2022-12-04T12:37:46.250Z,14.73
2022-12-04T12:41:46.726Z,16.40
2022-12-04T12:45:33.708Z,15.82
2022-12-04T12:49:31.476Z,15.93
2022-12-04T12:53:21.872Z,17.45
2022-12-04T12:57:10.496Z,17.75
2022-12-04T13:01:02.284Z,15.50
2022-12-04T13:04:49.697Z,16.88
2022-12-04T13:12:22.250Z,16.67
2022-12-04T13:16:10.752Z,16.10
2022-12-04T13:19:57.283Z,15.75
2022-12-04T13:23:57.340Z,16.55
2022-12-04T13:27:54.138Z,15.68
2022-12-04T13:32:10.906Z,16.15
2022-12-04T13:35:58.683Z,16.33
2022-12-04T13:39:59.010Z,16.00
2022-12-04T13:43:40.863Z,17.35
2022-12-04T13:47:29.386Z,16.98
2022-12-04T13:51:14.041Z,16.88
2022-12-04T13:55:00.070Z,16.95
2022-12-04T13:58:42.949Z,17.38
2022-12-04T14:02:29.579Z,17.42
2022-12-04T14:06:28.569Z,15.80
2022-12-04T14:10:16.057Z,18.27
2022-12-04T14:14:03.492Z,19.88
2022-12-04T14:18:02.781Z,18.70
2022-12-04T14:21:46.855Z,20.13
2022-12-04T14:25:40.034Z,19.17
2022-12-04T14:29:52.688Z,17.77
2022-12-04T14:33:42.314Z,17.83
2022-12-04T14:37:35.981Z,19.40
2022-12-04T14:41:26.046Z,18.80
2022-12-04T14:45:28.146Z,18.25
2022-12-04T14:49:36.446Z,18.30
2022-12-04T14:53:42.829Z,19.13
2022-12-04T14:57:43.072Z,18.27
2022-12-04T15:01:29.996Z,18.05
2022-12-04T15:05:21.234Z,17.83
2022-12-04T15:09:23.211Z,18.58
2022-12-04T15:13:04.996Z,18.88
2022-12-04T15:16:46.774Z,18.40
2022-12-04T15:20:38.810Z,17.98
2022-12-04T15:24:23.436Z,18.42
2022-12-04T15:28:16.557Z,16.50
2022-12-04T15:32:02.160Z,17.73
2022-12-04T15:35:50.705Z,20.95
2022-12-04T15:39:34.494Z,17.95
2022-12-04T15:43:17.478Z,18.00
2022-12-04T15:47:02.518Z,18.20
2022-12-04T15:50:44.301Z,17.63
2022-12-04T15:54:26.502Z,16.70
2022-12-04T15:58:21.212Z,17.05
2022-12-04T16:02:27.886Z,16.88
2022-12-04T16:06:21.676Z,19.00
2022-12-04T16:10:04.468Z,17.42
2022-12-04T16:13:48.813Z,18.65
2022-12-04T16:17:33.039Z,16.45
2022-12-04T16:21:18.311Z,18.17
2022-12-04T16:25:00.382Z,19.15
2022-12-04T16:28:42.327Z,19.73
2022-12-04T16:32:30.266Z,18.83
2022-12-04T16:36:12.132Z,20.20
2022-12-04T16:39:54.067Z,19.98
2022-12-04T16:43:35.822Z,19.95
2022-12-04T16:47:18.485Z,18.33
2022-12-04T16:51:00.266Z,18.77
2022-12-04T16:54:42.206Z,19.48
2022-12-04T16:58:24.055Z,17.83
2022-12-04T17:02:17.547Z,20.08
2022-12-04T17:06:00.724Z,19.58
2022-12-04T17:09:42.659Z,19.10
2022-12-04T17:13:24.455Z,18.25
2022-12-04T17:17:06.406Z,20.13
2022-12-04T17:20:54.321Z,17.98
2022-12-04T17:24:37.854Z,18.55
2022-12-04T17:28:21.254Z,19.25
2022-12-04T17:32:03.098Z,19.55
2022-12-04T17:35:44.846Z,19.45
2022-12-04T17:39:26.630Z,20.88
2022-12-04T17:43:08.380Z,19.67
2022-12-04T17:46:50.318Z,19.52
2022-12-04T17:50:32.086Z,18.63
2022-12-04T17:54:14.170Z,18.05
2022-12-04T17:57:56.045Z,17.17
2022-12-04T18:01:37.877Z,16.33
2022-12-04T18:05:19.625Z,17.35
2022-12-04T18:09:02.268Z,17.63
2022-12-04T18:12:44.098Z,17.67
2022-12-04T18:16:27.177Z,15.88
2022-12-04T18:20:09.793Z,14.85
2022-12-04T18:23:52.785Z,15.80
2022-12-04T18:27:37.802Z,16.60
2022-12-04T18:31:23.739Z,15.82
2022-12-04T18:35:05.872Z,16.63
2022-12-04T18:38:52.467Z,14.98
2022-12-04T18:42:34.214Z,15.13
2022-12-04T18:46:17.102Z,16.15
2022-12-04T18:49:59.352Z,14.43
2022-12-04T18:53:41.524Z,14.65
2022-12-04T18:57:23.318Z,15.60
2022-12-04T19:01:18.611Z,15.85
2022-12-04T19:05:00.610Z,15.23
2022-12-04T19:08:43.644Z,15.88
2022-12-04T19:12:25.609Z,15.48
2022-12-04T19:16:16.868Z,15.40
2022-12-04T19:19:58.986Z,14.88
2022-12-04T19:23:42.404Z,15.20
2022-12-04T19:27:24.593Z,13.85
2022-12-04T19:31:15.664Z,14.50
2022-12-04T19:34:57.478Z,15.32
2022-12-04T19:38:39.917Z,13.65
2022-12-04T19:42:21.678Z,15.52
2022-12-04T19:46:03.895Z,15.02
2022-12-04T19:49:46.522Z,14.88
2022-12-04T19:53:28.364Z,15.10
2022-12-04T19:57:10.171Z,14.05
2022-12-04T20:00:56.437Z,15.98
2022-12-04T20:04:39.198Z,13.70
2022-12-04T20:08:21.250Z,15.38
2022-12-04T20:12:03.214Z,14.25
2022-12-04T20:15:45.020Z,15.32
2022-12-04T20:19:27.066Z,15.40
2022-12-04T20:23:09.002Z,15.70
2022-12-04T20:26:50.783Z,15.15
2022-12-04T20:30:32.544Z,14.15
2022-12-04T20:34:20.427Z,14.13
2022-12-04T20:38:02.814Z,13.05
2022-12-04T20:41:44.805Z,12.50
2022-12-04T20:45:26.855Z,13.15
2022-12-04T20:49:18.826Z,12.25
2022-12-04T20:53:02.777Z,11.93
2022-12-04T20:56:45.339Z,11.43
2022-12-04T21:00:27.180Z,11.55
2022-12-04T21:04:09.552Z,12.07
2022-12-04T21:07:51.893Z,10.38
2022-12-04T21:11:36.742Z,11.35
2022-12-04T21:15:37.032Z,11.00
2022-12-04T21:19:20.625Z,11.27
2022-12-04T21:23:02.609Z,11.10
2022-12-04T21:26:44.915Z,12.05
2022-12-04T21:30:27.856Z,11.30
2022-12-04T21:34:12.435Z,12.80
2022-12-04T21:37:54.257Z,12.90
2022-12-04T21:41:54.518Z,12.00
2022-12-04T21:45:36.426Z,12.20
2022-12-04T21:49:19.264Z,12.20
2022-12-04T21:53:00.998Z,11.25
2022-12-04T21:56:42.971Z,10.27
2022-12-04T22:00:24.714Z,10.95
2022-12-04T22:04:09.007Z,11.18
2022-12-04T22:07:57.122Z,9.40
2022-12-04T22:11:41.634Z,9.18
2022-12-04T22:15:23.522Z,7.32
2022-12-04T22:19:05.294Z,7.10
2022-12-04T22:22:47.283Z,7.13
2022-12-04T22:26:29.932Z,6.60
2022-12-04T22:30:12.347Z,9.23
2022-12-04T22:33:56.482Z,8.85
2022-12-04T22:37:43.942Z,8.77
2022-12-04T22:41:26.624Z,9.60
2022-12-04T22:45:09.141Z,9.70
2022-12-04T22:48:50.892Z,9.70
2022-12-04T22:52:33.295Z,10.90
2022-12-04T22:56:21.550Z,10.25
2022-12-04T23:00:05.117Z,10.27
2022-12-04T23:03:47.682Z,8.75
2022-12-04T23:07:29.478Z,9.40
2022-12-04T23:11:16.102Z,9.25
2022-12-04T23:14:58.371Z,9.37
2022-12-04T23:18:40.244Z,10.02
2022-12-04T23:22:22.170Z,8.93
2022-12-04T23:26:10.606Z,9.40
2022-12-04T23:30:04.366Z,9.80
2022-12-04T23:33:46.178Z,8.55
2022-12-04T23:37:27.897Z,10.18
2022-12-04T23:41:19.642Z,10.60
2022-12-04T23:45:01.420Z,9.68
2022-12-04T23:48:44.622Z,8.88
2022-12-04T23:52:26.361Z,9.27
2022-12-04T23:56:14.239Z,9.68
2022-12-04T23:59:56.366Z,9.13
